sensor_id;sensor_type;location;lat;lon;timestamp;P1;durP1;ratioP1;P2;durP2;ratioP2
20709;SDS011;10516;51.518;9.864;2022-11-10T00:00:08;6.70;;;3.03;;
20709;SDS011;10516;51.518;9.864;2022-11-10T00:02:34;5.72;;;3.05;;
20709;SDS011;10516;51.518;9.864;2022-11-10T00:05:00;10.82;;;3.38;;
20709;SDS011;10516;51.518;9.864;2022-11-10T00:07:26;3.55;;;2.85;;
20709;SDS011;10516;51.518;9.864;2022-11-10T00:09:52;4.80;;;2.75;;
20709;SDS011;10516;51.518;9.864;2022-11-10T00:12:19;6.95;;;2.90;;
20709;SDS011;10516;51.518;9.864;2022-11-10T00:14:46;4.53;;;2.92;;
20709;SDS011;10516;51.518;9.864;2022-11-10T00:17:29;5.57;;;2.50;;
20709;SDS011;10516;51.518;9.864;2022-11-10T00:19:55;5.55;;;2.88;;
20709;SDS011;10516;51.518;9.864;2022-11-10T00:22:21;6.53;;;3.00;;
20709;SDS011;10516;51.518;9.864;2022-11-10T00:24:46;9.32;;;2.90;;
20709;SDS011;10516;51.518;9.864;2022-11-10T00:27:12;5.70;;;2.47;;
20709;SDS011;10516;51.518;9.864;2022-11-10T00:29:41;7.03;;;3.80;;
20709;SDS011;10516;51.518;9.864;2022-11-10T00:32:06;7.65;;;2.60;;
20709;SDS011;10516;51.518;9.864;2022-11-10T00:34:32;4.45;;;2.60;;
20709;SDS011;10516;51.518;9.864;2022-11-10T00:36:58;6.28;;;2.53;;
20709;SDS011;10516;51.518;9.864;2022-11-10T00:39:23;4.85;;;2.28;;
20709;SDS011;10516;51.518;9.864;2022-11-10T00:41:49;6.85;;;2.38;;
20709;SDS011;10516;51.518;9.864;2022-11-10T00:44:14;8.95;;;2.70;;
20709;SDS011;10516;51.518;9.864;2022-11-10T00:46:39;4.05;;;2.25;;
20709;SDS011;10516;51.518;9.864;2022-11-10T00:49:05;7.05;;;2.28;;
20709;SDS011;10516;51.518;9.864;2022-11-10T00:51:30;4.68;;;2.40;;
20709;SDS011;10516;51.518;9.864;2022-11-10T00:53:56;5.90;;;2.33;;
20709;SDS011;10516;51.518;9.864;2022-11-10T00:56:22;6.53;;;2.60;;
20709;SDS011;10516;51.518;9.864;2022-11-10T00:58:47;11.57;;;2.30;;
20709;SDS011;10516;51.518;9.864;2022-11-10T01:01:13;6.90;;;2.63;;
20709;SDS011;10516;51.518;9.864;2022-11-10T01:03:39;7.20;;;2.08;;
20709;SDS011;10516;51.518;9.864;2022-11-10T01:06:05;4.32;;;2.35;;
20709;SDS011;10516;51.518;9.864;2022-11-10T01:08:32;4.90;;;2.25;;
20709;SDS011;10516;51.518;9.864;2022-11-10T01:11:09;5.50;;;2.55;;
20709;SDS011;10516;51.518;9.864;2022-11-10T01:13:39;10.48;;;3.35;;
20709;SDS011;10516;51.518;9.864;2022-11-10T01:16:47;5.47;;;2.33;;
20709;SDS011;10516;51.518;9.864;2022-11-10T01:18:56;9.32;;;2.35;;
20709;SDS011;10516;51.518;9.864;2022-11-10T01:21:24;6.50;;;2.28;;
20709;SDS011;10516;51.518;9.864;2022-11-10T01:23:50;5.32;;;2.50;;
20709;SDS011;10516;51.518;9.864;2022-11-10T01:26:16;4.50;;;2.50;;
20709;SDS011;10516;51.518;9.864;2022-11-10T01:28:42;6.78;;;2.75;;
20709;SDS011;10516;51.518;9.864;2022-11-10T01:31:13;5.60;;;2.30;;
20709;SDS011;10516;51.518;9.864;2022-11-10T01:33:40;13.25;;;2.75;;
20709;SDS011;10516;51.518;9.864;2022-11-10T01:36:06;4.88;;;2.65;;
20709;SDS011;10516;51.518;9.864;2022-11-10T01:38:36;7.22;;;2.28;;
20709;SDS011;10516;51.518;9.864;2022-11-10T01:41:03;7.93;;;2.60;;
20709;SDS011;10516;51.518;9.864;2022-11-10T01:43:30;11.20;;;2.88;;
20709;SDS011;10516;51.518;9.864;2022-11-10T01:48:38;5.18;;;2.97;;
20709;SDS011;10516;51.518;9.864;2022-11-10T01:53:58;5.60;;;2.50;;
20709;SDS011;10516;51.518;9.864;2022-11-10T01:56:27;7.30;;;2.22;;
20709;SDS011;10516;51.518;9.864;2022-11-10T01:58:57;5.18;;;2.28;;
20709;SDS011;10516;51.518;9.864;2022-11-10T02:01:26;6.32;;;3.05;;
20709;SDS011;10516;51.518;9.864;2022-11-10T02:03:53;4.97;;;2.60;;
20709;SDS011;10516;51.518;9.864;2022-11-10T02:06:22;10.13;;;2.72;;
20709;SDS011;10516;51.518;9.864;2022-11-10T02:08:50;4.35;;;2.35;;
20709;SDS011;10516;51.518;9.864;2022-11-10T02:11:17;4.90;;;2.63;;
20709;SDS011;10516;51.518;9.864;2022-11-10T02:13:43;7.10;;;2.58;;
20709;SDS011;10516;51.518;9.864;2022-11-10T02:16:09;3.70;;;2.95;;
20709;SDS011;10516;51.518;9.864;2022-11-10T02:18:36;7.25;;;2.80;;
20709;SDS011;10516;51.518;9.864;2022-11-10T02:21:05;6.82;;;3.17;;
20709;SDS011;10516;51.518;9.864;2022-11-10T02:26:02;7.78;;;2.40;;
20709;SDS011;10516;51.518;9.864;2022-11-10T02:28:34;11.45;;;2.80;;
20709;SDS011;10516;51.518;9.864;2022-11-10T02:31:00;9.98;;;2.95;;
20709;SDS011;10516;51.518;9.864;2022-11-10T02:33:26;17.30;;;3.35;;
20709;SDS011;10516;51.518;9.864;2022-11-10T02:35:52;6.97;;;2.70;;
20709;SDS011;10516;51.518;9.864;2022-11-10T02:38:17;3.35;;;2.67;;
20709;SDS011;10516;51.518;9.864;2022-11-10T02:40:43;11.02;;;3.25;;
20709;SDS011;10516;51.518;9.864;2022-11-10T02:43:09;8.13;;;2.80;;
20709;SDS011;10516;51.518;9.864;2022-11-10T02:45:36;5.85;;;2.83;;
20709;SDS011;10516;51.518;9.864;2022-11-10T02:48:11;6.78;;;2.95;;
20709;SDS011;10516;51.518;9.864;2022-11-10T02:50:38;5.35;;;2.60;;
20709;SDS011;10516;51.518;9.864;2022-11-10T02:53:04;8.50;;;2.38;;
20709;SDS011;10516;51.518;9.864;2022-11-10T02:55:30;8.38;;;3.70;;
20709;SDS011;10516;51.518;9.864;2022-11-10T02:57:56;6.00;;;2.80;;
20709;SDS011;10516;51.518;9.864;2022-11-10T03:00:21;7.40;;;2.53;;
20709;SDS011;10516;51.518;9.864;2022-11-10T03:02:47;6.35;;;3.40;;
20709;SDS011;10516;51.518;9.864;2022-11-10T03:05:12;7.13;;;3.45;;
20709;SDS011;10516;51.518;9.864;2022-11-10T03:07:38;10.50;;;3.05;;
20709;SDS011;10516;51.518;9.864;2022-11-10T03:10:04;4.70;;;2.75;;
20709;SDS011;10516;51.518;9.864;2022-11-10T03:12:30;6.82;;;3.08;;
20709;SDS011;10516;51.518;9.864;2022-11-10T03:14:56;13.32;;;3.28;;
20709;SDS011;10516;51.518;9.864;2022-11-10T03:17:21;10.73;;;4.30;;
20709;SDS011;10516;51.518;9.864;2022-11-10T03:19:47;8.20;;;3.03;;
20709;SDS011;10516;51.518;9.864;2022-11-10T03:22:13;11.07;;;3.30;;
20709;SDS011;10516;51.518;9.864;2022-11-10T03:24:39;5.50;;;3.15;;
20709;SDS011;10516;51.518;9.864;2022-11-10T03:27:04;9.98;;;3.00;;
20709;SDS011;10516;51.518;9.864;2022-11-10T03:29:30;8.27;;;3.30;;
20709;SDS011;10516;51.518;9.864;2022-11-10T03:31:55;8.48;;;2.90;;
20709;SDS011;10516;51.518;9.864;2022-11-10T03:34:21;6.65;;;3.08;;
20709;SDS011;10516;51.518;9.864;2022-11-10T03:36:46;4.93;;;2.95;;
20709;SDS011;10516;51.518;9.864;2022-11-10T03:39:12;7.95;;;3.00;;
20709;SDS011;10516;51.518;9.864;2022-11-10T03:41:37;7.05;;;3.10;;
20709;SDS011;10516;51.518;9.864;2022-11-10T03:44:02;9.15;;;3.35;;
20709;SDS011;10516;51.518;9.864;2022-11-10T03:46:28;7.75;;;3.55;;
20709;SDS011;10516;51.518;9.864;2022-11-10T03:48:53;11.15;;;4.13;;
20709;SDS011;10516;51.518;9.864;2022-11-10T03:51:19;5.07;;;2.83;;
20709;SDS011;10516;51.518;9.864;2022-11-10T03:53:45;6.15;;;3.22;;
20709;SDS011;10516;51.518;9.864;2022-11-10T03:56:10;8.05;;;2.67;;
20709;SDS011;10516;51.518;9.864;2022-11-10T03:58:36;5.10;;;3.35;;
20709;SDS011;10516;51.518;9.864;2022-11-10T04:01:02;7.60;;;3.25;;
20709;SDS011;10516;51.518;9.864;2022-11-10T04:03:27;8.57;;;2.95;;
20709;SDS011;10516;51.518;9.864;2022-11-10T04:05:52;5.43;;;3.17;;
20709;SDS011;10516;51.518;9.864;2022-11-10T04:08:36;7.13;;;3.50;;
20709;SDS011;10516;51.518;9.864;2022-11-10T04:11:21;9.38;;;3.75;;
20709;SDS011;10516;51.518;9.864;2022-11-10T04:14:04;6.82;;;3.55;;
20709;SDS011;10516;51.518;9.864;2022-11-10T04:16:48;8.40;;;4.32;;
20709;SDS011;10516;51.518;9.864;2022-11-10T04:19:14;7.72;;;3.20;;
20709;SDS011;10516;51.518;9.864;2022-11-10T04:21:39;7.05;;;3.40;;
20709;SDS011;10516;51.518;9.864;2022-11-10T04:24:05;6.30;;;2.88;;
20709;SDS011;10516;51.518;9.864;2022-11-10T04:26:31;6.72;;;2.97;;
20709;SDS011;10516;51.518;9.864;2022-11-10T04:29:01;9.40;;;3.28;;
20709;SDS011;10516;51.518;9.864;2022-11-10T04:31:29;3.85;;;2.45;;
20709;SDS011;10516;51.518;9.864;2022-11-10T04:33:56;9.15;;;3.10;;
20709;SDS011;10516;51.518;9.864;2022-11-10T04:36:23;10.05;;;3.35;;
20709;SDS011;10516;51.518;9.864;2022-11-10T04:38:50;8.90;;;3.65;;
20709;SDS011;10516;51.518;9.864;2022-11-10T04:41:16;11.75;;;3.22;;
20709;SDS011;10516;51.518;9.864;2022-11-10T04:43:41;11.20;;;3.45;;
20709;SDS011;10516;51.518;9.864;2022-11-10T04:46:12;5.63;;;2.75;;
20709;SDS011;10516;51.518;9.864;2022-11-10T04:48:40;8.10;;;2.90;;
20709;SDS011;10516;51.518;9.864;2022-11-10T04:51:06;8.00;;;3.05;;
20709;SDS011;10516;51.518;9.864;2022-11-10T04:53:31;6.13;;;2.85;;
20709;SDS011;10516;51.518;9.864;2022-11-10T04:55:57;4.47;;;3.08;;
20709;SDS011;10516;51.518;9.864;2022-11-10T04:58:22;11.13;;;3.53;;
20709;SDS011;10516;51.518;9.864;2022-11-10T05:00:48;10.77;;;3.47;;
20709;SDS011;10516;51.518;9.864;2022-11-10T05:03:13;5.57;;;2.92;;
20709;SDS011;10516;51.518;9.864;2022-11-10T05:05:39;6.93;;;3.13;;
20709;SDS011;10516;51.518;9.864;2022-11-10T05:08:05;5.57;;;3.58;;
20709;SDS011;10516;51.518;9.864;2022-11-10T05:10:32;4.45;;;2.53;;
20709;SDS011;10516;51.518;9.864;2022-11-10T05:12:59;7.22;;;3.05;;
20709;SDS011;10516;51.518;9.864;2022-11-10T05:15:25;5.85;;;3.38;;
20709;SDS011;10516;51.518;9.864;2022-11-10T05:17:51;6.25;;;3.28;;
20709;SDS011;10516;51.518;9.864;2022-11-10T05:20:19;6.93;;;2.55;;
20709;SDS011;10516;51.518;9.864;2022-11-10T05:22:47;5.88;;;2.35;;
20709;SDS011;10516;51.518;9.864;2022-11-10T05:25:32;9.85;;;3.15;;
20709;SDS011;10516;51.518;9.864;2022-11-10T05:28:00;7.68;;;3.65;;
20709;SDS011;10516;51.518;9.864;2022-11-10T05:30:25;6.53;;;3.00;;
20709;SDS011;10516;51.518;9.864;2022-11-10T05:32:51;7.75;;;2.90;;
20709;SDS011;10516;51.518;9.864;2022-11-10T05:35:16;5.43;;;3.08;;
20709;SDS011;10516;51.518;9.864;2022-11-10T05:37:42;10.35;;;3.10;;
20709;SDS011;10516;51.518;9.864;2022-11-10T05:40:07;11.90;;;3.42;;
20709;SDS011;10516;51.518;9.864;2022-11-10T05:42:33;12.15;;;3.70;;
20709;SDS011;10516;51.518;9.864;2022-11-10T05:44:58;4.72;;;3.13;;
20709;SDS011;10516;51.518;9.864;2022-11-10T05:47:23;9.63;;;3.13;;
20709;SDS011;10516;51.518;9.864;2022-11-10T05:49:49;7.68;;;3.22;;
20709;SDS011;10516;51.518;9.864;2022-11-10T05:52:14;5.53;;;3.15;;
20709;SDS011;10516;51.518;9.864;2022-11-10T05:54:40;9.07;;;3.22;;
20709;SDS011;10516;51.518;9.864;2022-11-10T05:57:05;12.85;;;3.10;;
20709;SDS011;10516;51.518;9.864;2022-11-10T05:59:30;11.50;;;3.03;;
20709;SDS011;10516;51.518;9.864;2022-11-10T06:01:56;7.30;;;3.00;;
20709;SDS011;10516;51.518;9.864;2022-11-10T06:04:21;7.63;;;3.40;;
20709;SDS011;10516;51.518;9.864;2022-11-10T06:06:47;9.88;;;3.13;;
20709;SDS011;10516;51.518;9.864;2022-11-10T06:09:12;8.40;;;3.58;;
20709;SDS011;10516;51.518;9.864;2022-11-10T06:11:37;4.38;;;3.03;;
20709;SDS011;10516;51.518;9.864;2022-11-10T06:14:03;6.63;;;3.13;;
20709;SDS011;10516;51.518;9.864;2022-11-10T06:16:29;3.70;;;3.15;;
20709;SDS011;10516;51.518;9.864;2022-11-10T06:18:54;6.82;;;3.38;;
20709;SDS011;10516;51.518;9.864;2022-11-10T06:21:20;11.45;;;3.70;;
20709;SDS011;10516;51.518;9.864;2022-11-10T06:23:45;6.13;;;2.88;;
20709;SDS011;10516;51.518;9.864;2022-11-10T06:26:11;7.68;;;3.45;;
20709;SDS011;10516;51.518;9.864;2022-11-10T06:28:36;6.07;;;3.10;;
20709;SDS011;10516;51.518;9.864;2022-11-10T06:31:01;7.57;;;3.03;;
20709;SDS011;10516;51.518;9.864;2022-11-10T06:33:27;16.88;;;3.42;;
20709;SDS011;10516;51.518;9.864;2022-11-10T06:35:53;11.20;;;3.42;;
20709;SDS011;10516;51.518;9.864;2022-11-10T06:38:19;7.95;;;3.20;;
20709;SDS011;10516;51.518;9.864;2022-11-10T06:40:44;9.10;;;3.72;;
20709;SDS011;10516;51.518;9.864;2022-11-10T06:43:10;8.02;;;3.28;;
20709;SDS011;10516;51.518;9.864;2022-11-10T06:45:35;6.30;;;3.92;;
20709;SDS011;10516;51.518;9.864;2022-11-10T06:48:08;9.77;;;3.65;;
20709;SDS011;10516;51.518;9.864;2022-11-10T06:50:36;13.48;;;3.28;;
20709;SDS011;10516;51.518;9.864;2022-11-10T06:53:01;9.57;;;3.28;;
20709;SDS011;10516;51.518;9.864;2022-11-10T06:55:28;8.05;;;3.45;;
20709;SDS011;10516;51.518;9.864;2022-11-10T06:57:53;6.15;;;2.92;;
20709;SDS011;10516;51.518;9.864;2022-11-10T07:00:19;12.68;;;3.80;;
20709;SDS011;10516;51.518;9.864;2022-11-10T07:02:44;13.73;;;4.10;;
20709;SDS011;10516;51.518;9.864;2022-11-10T07:05:10;11.07;;;4.03;;
20709;SDS011;10516;51.518;9.864;2022-11-10T07:07:35;7.55;;;4.13;;
20709;SDS011;10516;51.518;9.864;2022-11-10T07:10:00;5.50;;;3.15;;
20709;SDS011;10516;51.518;9.864;2022-11-10T07:12:26;7.40;;;3.25;;
20709;SDS011;10516;51.518;9.864;2022-11-10T07:14:51;4.38;;;3.10;;
20709;SDS011;10516;51.518;9.864;2022-11-10T07:17:17;11.80;;;3.75;;
20709;SDS011;10516;51.518;9.864;2022-11-10T07:19:42;5.75;;;3.42;;
20709;SDS011;10516;51.518;9.864;2022-11-10T07:22:07;11.98;;;4.35;;
20709;SDS011;10516;51.518;9.864;2022-11-10T07:24:33;7.70;;;3.30;;
20709;SDS011;10516;51.518;9.864;2022-11-10T07:26:58;10.40;;;4.45;;
20709;SDS011;10516;51.518;9.864;2022-11-10T07:29:24;11.65;;;4.43;;
20709;SDS011;10516;51.518;9.864;2022-11-10T07:31:50;11.48;;;3.95;;
20709;SDS011;10516;51.518;9.864;2022-11-10T07:34:15;4.95;;;3.05;;
20709;SDS011;10516;51.518;9.864;2022-11-10T07:36:41;6.72;;;3.60;;
20709;SDS011;10516;51.518;9.864;2022-11-10T07:39:06;12.75;;;4.20;;
20709;SDS011;10516;51.518;9.864;2022-11-10T07:41:31;9.05;;;3.78;;
20709;SDS011;10516;51.518;9.864;2022-11-10T07:43:57;7.50;;;3.65;;
20709;SDS011;10516;51.518;9.864;2022-11-10T07:46:22;14.32;;;3.35;;
20709;SDS011;10516;51.518;9.864;2022-11-10T07:48:48;8.82;;;3.95;;
20709;SDS011;10516;51.518;9.864;2022-11-10T07:51:13;21.25;;;4.70;;
20709;SDS011;10516;51.518;9.864;2022-11-10T07:53:39;8.90;;;3.80;;
20709;SDS011;10516;51.518;9.864;2022-11-10T07:56:05;8.60;;;4.18;;
20709;SDS011;10516;51.518;9.864;2022-11-10T07:58:31;9.82;;;3.80;;
20709;SDS011;10516;51.518;9.864;2022-11-10T08:00:58;7.20;;;3.40;;
20709;SDS011;10516;51.518;9.864;2022-11-10T08:03:24;11.07;;;3.95;;
20709;SDS011;10516;51.518;9.864;2022-11-10T08:05:49;8.10;;;3.60;;
20709;SDS011;10516;51.518;9.864;2022-11-10T08:08:15;9.93;;;3.83;;
20709;SDS011;10516;51.518;9.864;2022-11-10T08:10:41;15.38;;;4.03;;
20709;SDS011;10516;51.518;9.864;2022-11-10T08:13:07;9.43;;;3.50;;
20709;SDS011;10516;51.518;9.864;2022-11-10T08:15:35;8.45;;;4.38;;
20709;SDS011;10516;51.518;9.864;2022-11-10T08:18:01;6.20;;;3.60;;
20709;SDS011;10516;51.518;9.864;2022-11-10T08:20:29;9.57;;;4.22;;
20709;SDS011;10516;51.518;9.864;2022-11-10T08:22:58;7.47;;;4.15;;
20709;SDS011;10516;51.518;9.864;2022-11-10T08:25:26;7.97;;;3.85;;
20709;SDS011;10516;51.518;9.864;2022-11-10T08:27:56;14.77;;;5.38;;
20709;SDS011;10516;51.518;9.864;2022-11-10T08:30:22;13.27;;;4.45;;
20709;SDS011;10516;51.518;9.864;2022-11-10T08:32:48;16.38;;;5.10;;
20709;SDS011;10516;51.518;9.864;2022-11-10T08:35:13;10.25;;;4.18;;
20709;SDS011;10516;51.518;9.864;2022-11-10T08:37:39;13.45;;;4.63;;
20709;SDS011;10516;51.518;9.864;2022-11-10T08:40:04;17.00;;;5.03;;
20709;SDS011;10516;51.518;9.864;2022-11-10T08:42:30;13.10;;;4.47;;
20709;SDS011;10516;51.518;9.864;2022-11-10T08:44:55;11.05;;;3.92;;
20709;SDS011;10516;51.518;9.864;2022-11-10T08:47:21;11.95;;;4.47;;
20709;SDS011;10516;51.518;9.864;2022-11-10T08:49:46;18.10;;;7.35;;
20709;SDS011;10516;51.518;9.864;2022-11-10T08:52:12;19.55;;;5.07;;
20709;SDS011;10516;51.518;9.864;2022-11-10T08:54:38;9.70;;;5.07;;
20709;SDS011;10516;51.518;9.864;2022-11-10T08:57:03;18.60;;;4.90;;
20709;SDS011;10516;51.518;9.864;2022-11-10T08:59:28;18.98;;;4.45;;
20709;SDS011;10516;51.518;9.864;2022-11-10T09:01:54;13.90;;;4.55;;
20709;SDS011;10516;51.518;9.864;2022-11-10T09:04:19;20.02;;;5.75;;
20709;SDS011;10516;51.518;9.864;2022-11-10T09:06:44;14.52;;;4.85;;
20709;SDS011;10516;51.518;9.864;2022-11-10T09:09:10;24.55;;;4.75;;
20709;SDS011;10516;51.518;9.864;2022-11-10T09:11:35;21.85;;;6.93;;
20709;SDS011;10516;51.518;9.864;2022-11-10T09:14:01;18.55;;;4.65;;
20709;SDS011;10516;51.518;9.864;2022-11-10T09:16:26;11.90;;;4.18;;
20709;SDS011;10516;51.518;9.864;2022-11-10T09:18:51;19.77;;;5.18;;
20709;SDS011;10516;51.518;9.864;2022-11-10T09:21:17;12.32;;;4.72;;
20709;SDS011;10516;51.518;9.864;2022-11-10T09:23:42;12.27;;;4.35;;
20709;SDS011;10516;51.518;9.864;2022-11-10T09:26:07;18.02;;;4.47;;
20709;SDS011;10516;51.518;9.864;2022-11-10T09:28:33;12.50;;;4.65;;
20709;SDS011;10516;51.518;9.864;2022-11-10T09:30:58;9.88;;;3.60;;
20709;SDS011;10516;51.518;9.864;2022-11-10T09:33:24;16.75;;;4.72;;
20709;SDS011;10516;51.518;9.864;2022-11-10T09:35:49;11.30;;;4.50;;
20709;SDS011;10516;51.518;9.864;2022-11-10T09:38:14;9.30;;;3.63;;
20709;SDS011;10516;51.518;9.864;2022-11-10T09:46:34;11.30;;;4.78;;
20709;SDS011;10516;51.518;9.864;2022-11-10T09:49:18;12.13;;;4.18;;
20709;SDS011;10516;51.518;9.864;2022-11-10T09:52:05;15.05;;;6.38;;
20709;SDS011;10516;51.518;9.864;2022-11-10T09:54:38;8.07;;;4.45;;
20709;SDS011;10516;51.518;9.864;2022-11-10T09:57:09;14.52;;;4.85;;
20709;SDS011;10516;51.518;9.864;2022-11-10T09:59:38;14.77;;;5.65;;
20709;SDS011;10516;51.518;9.864;2022-11-10T10:02:47;11.45;;;4.93;;
20709;SDS011;10516;51.518;9.864;2022-11-10T10:10:49;9.80;;;5.53;;
20709;SDS011;10516;51.518;9.864;2022-11-10T10:21:39;8.93;;;4.57;;
20709;SDS011;10516;51.518;9.864;2022-11-10T10:24:27;10.88;;;5.10;;
20709;SDS011;10516;51.518;9.864;2022-11-10T10:26:54;14.30;;;5.05;;
20709;SDS011;10516;51.518;9.864;2022-11-10T10:29:24;11.95;;;4.60;;
20709;SDS011;10516;51.518;9.864;2022-11-10T10:31:53;11.55;;;5.07;;
20709;SDS011;10516;51.518;9.864;2022-11-10T10:34:22;12.35;;;4.82;;
20709;SDS011;10516;51.518;9.864;2022-11-10T10:36:51;9.50;;;4.20;;
20709;SDS011;10516;51.518;9.864;2022-11-10T10:39:26;22.20;;;5.85;;
20709;SDS011;10516;51.518;9.864;2022-11-10T10:41:56;13.82;;;4.57;;
20709;SDS011;10516;51.518;9.864;2022-11-10T10:44:22;13.27;;;5.30;;
20709;SDS011;10516;51.518;9.864;2022-11-10T10:46:48;14.57;;;4.97;;
20709;SDS011;10516;51.518;9.864;2022-11-10T10:52:03;15.90;;;4.90;;
20709;SDS011;10516;51.518;9.864;2022-11-10T10:54:39;10.70;;;4.93;;
20709;SDS011;10516;51.518;9.864;2022-11-10T10:57:24;15.05;;;4.50;;
20709;SDS011;10516;51.518;9.864;2022-11-10T11:00:40;11.30;;;4.43;;
20709;SDS011;10516;51.518;9.864;2022-11-10T11:02:59;8.80;;;4.97;;
20709;SDS011;10516;51.518;9.864;2022-11-10T11:05:25;13.25;;;5.40;;
20709;SDS011;10516;51.518;9.864;2022-11-10T11:07:55;12.68;;;4.72;;
20709;SDS011;10516;51.518;9.864;2022-11-10T11:10:23;11.73;;;4.07;;
20709;SDS011;10516;51.518;9.864;2022-11-10T11:15:57;13.18;;;4.47;;
20709;SDS011;10516;51.518;9.864;2022-11-10T11:18:24;15.70;;;5.40;;
20709;SDS011;10516;51.518;9.864;2022-11-10T11:23:58;9.65;;;3.65;;
20709;SDS011;10516;51.518;9.864;2022-11-10T11:41:00;13.60;;;4.22;;
20709;SDS011;10516;51.518;9.864;2022-11-10T11:43:47;11.93;;;3.95;;
20709;SDS011;10516;51.518;9.864;2022-11-10T11:54:22;14.23;;;3.85;;
20709;SDS011;10516;51.518;9.864;2022-11-10T11:56:54;16.00;;;3.60;;
20709;SDS011;10516;51.518;9.864;2022-11-10T12:08:37;14.00;;;5.03;;
20709;SDS011;10516;51.518;9.864;2022-11-10T12:11:25;14.73;;;3.72;;
20709;SDS011;10516;51.518;9.864;2022-11-10T12:16:37;12.90;;;5.03;;
20709;SDS011;10516;51.518;9.864;2022-11-10T12:22:05;15.23;;;4.55;;
20709;SDS011;10516;51.518;9.864;2022-11-10T12:27:22;12.00;;;3.38;;
20709;SDS011;10516;51.518;9.864;2022-11-10T12:30:00;19.10;;;5.45;;
20709;SDS011;10516;51.518;9.864;2022-11-10T12:32:33;10.82;;;4.30;;
20709;SDS011;10516;51.518;9.864;2022-11-10T12:35:20;12.93;;;3.80;;
20709;SDS011;10516;51.518;9.864;2022-11-10T12:45:50;15.00;;;4.32;;
20709;SDS011;10516;51.518;9.864;2022-11-10T12:48:20;10.75;;;3.97;;
20709;SDS011;10516;51.518;9.864;2022-11-10T12:53:42;10.80;;;3.75;;
20709;SDS011;10516;51.518;9.864;2022-11-10T12:58:49;12.38;;;3.85;;
20709;SDS011;10516;51.518;9.864;2022-11-10T13:01:46;19.15;;;3.33;;
20709;SDS011;10516;51.518;9.864;2022-11-10T13:04:15;9.50;;;3.60;;
20709;SDS011;10516;51.518;9.864;2022-11-10T13:06:48;11.60;;;3.60;;
20709;SDS011;10516;51.518;9.864;2022-11-10T13:09:22;10.23;;;3.20;;
20709;SDS011;10516;51.518;9.864;2022-11-10T13:14:34;10.60;;;3.50;;
20709;SDS011;10516;51.518;9.864;2022-11-10T13:16:59;14.80;;;3.47;;
20709;SDS011;10516;51.518;9.864;2022-11-10T13:27:01;14.55;;;4.50;;
20709;SDS011;10516;51.518;9.864;2022-11-10T13:34:33;14.13;;;4.38;;
20709;SDS011;10516;51.518;9.864;2022-11-10T13:37:00;12.68;;;3.75;;
20709;SDS011;10516;51.518;9.864;2022-11-10T13:44:34;11.80;;;3.97;;
20709;SDS011;10516;51.518;9.864;2022-11-10T13:52:26;14.77;;;4.13;;
20709;SDS011;10516;51.518;9.864;2022-11-10T13:55:13;8.88;;;3.38;;
20709;SDS011;10516;51.518;9.864;2022-11-10T13:58:09;15.73;;;4.22;;
20709;SDS011;10516;51.518;9.864;2022-11-10T14:00:42;9.82;;;3.58;;
20709;SDS011;10516;51.518;9.864;2022-11-10T14:03:59;12.32;;;3.67;;
20709;SDS011;10516;51.518;9.864;2022-11-10T14:06:19;16.92;;;5.22;;
20709;SDS011;10516;51.518;9.864;2022-11-10T14:11:39;14.52;;;3.72;;
20709;SDS011;10516;51.518;9.864;2022-11-10T14:16:59;12.55;;;4.20;;
20709;SDS011;10516;51.518;9.864;2022-11-10T14:19:36;13.18;;;3.80;;
20709;SDS011;10516;51.518;9.864;2022-11-10T14:22:10;19.98;;;4.00;;
20709;SDS011;10516;51.518;9.864;2022-11-10T14:25:04;9.25;;;3.42;;
20709;SDS011;10516;51.518;9.864;2022-11-10T14:27:38;13.45;;;3.67;;
20709;SDS011;10516;51.518;9.864;2022-11-10T14:32:30;16.45;;;3.55;;
20709;SDS011;10516;51.518;9.864;2022-11-10T14:34:55;13.52;;;3.70;;
20709;SDS011;10516;51.518;9.864;2022-11-10T14:37:23;10.60;;;3.72;;
20709;SDS011;10516;51.518;9.864;2022-11-10T14:39:54;8.50;;;3.03;;
20709;SDS011;10516;51.518;9.864;2022-11-10T14:42:23;20.23;;;3.78;;
20709;SDS011;10516;51.518;9.864;2022-11-10T14:45:03;13.85;;;3.78;;
20709;SDS011;10516;51.518;9.864;2022-11-10T14:47:39;10.15;;;3.45;;
20709;SDS011;10516;51.518;9.864;2022-11-10T14:50:26;13.27;;;4.10;;
20709;SDS011;10516;51.518;9.864;2022-11-10T14:52:56;17.77;;;3.67;;
20709;SDS011;10516;51.518;9.864;2022-11-10T14:55:29;8.35;;;3.30;;
20709;SDS011;10516;51.518;9.864;2022-11-10T15:00:42;10.23;;;3.05;;
20709;SDS011;10516;51.518;9.864;2022-11-10T15:03:10;8.27;;;3.65;;
20709;SDS011;10516;51.518;9.864;2022-11-10T15:05:42;18.17;;;4.18;;
20709;SDS011;10516;51.518;9.864;2022-11-10T15:08:08;18.17;;;4.45;;
20709;SDS011;10516;51.518;9.864;2022-11-10T15:15:37;9.60;;;3.65;;
20709;SDS011;10516;51.518;9.864;2022-11-10T15:18:03;13.40;;;3.78;;
20709;SDS011;10516;51.518;9.864;2022-11-10T15:22:58;12.23;;;3.72;;
20709;SDS011;10516;51.518;9.864;2022-11-10T15:25:33;9.90;;;4.75;;
20709;SDS011;10516;51.518;9.864;2022-11-10T15:28:02;15.25;;;4.68;;
20709;SDS011;10516;51.518;9.864;2022-11-10T15:30:30;18.13;;;4.47;;
20709;SDS011;10516;51.518;9.864;2022-11-10T15:32:56;13.25;;;5.50;;
20709;SDS011;10516;51.518;9.864;2022-11-10T15:35:27;10.32;;;4.55;;
20709;SDS011;10516;51.518;9.864;2022-11-10T15:38:04;31.38;;;6.60;;
20709;SDS011;10516;51.518;9.864;2022-11-10T15:40:44;17.92;;;6.13;;
20709;SDS011;10516;51.518;9.864;2022-11-10T15:45:43;18.42;;;7.15;;
20709;SDS011;10516;51.518;9.864;2022-11-10T15:48:13;23.50;;;8.90;;
20709;SDS011;10516;51.518;9.864;2022-11-10T15:50:44;26.77;;;11.00;;
20709;SDS011;10516;51.518;9.864;2022-11-10T15:53:16;28.80;;;10.80;;
20709;SDS011;10516;51.518;9.864;2022-11-10T15:55:45;29.80;;;9.82;;
20709;SDS011;10516;51.518;9.864;2022-11-10T15:58:11;19.70;;;9.00;;
20709;SDS011;10516;51.518;9.864;2022-11-10T16:00:38;26.02;;;8.30;;
20709;SDS011;10516;51.518;9.864;2022-11-10T16:03:04;19.17;;;7.57;;
20709;SDS011;10516;51.518;9.864;2022-11-10T16:05:33;21.67;;;7.10;;
20709;SDS011;10516;51.518;9.864;2022-11-10T16:07:58;12.90;;;5.00;;
20709;SDS011;10516;51.518;9.864;2022-11-10T16:10:24;15.38;;;6.60;;
20709;SDS011;10516;51.518;9.864;2022-11-10T16:12:52;14.52;;;6.20;;
20709;SDS011;10516;51.518;9.864;2022-11-10T16:15:17;14.80;;;6.10;;
20709;SDS011;10516;51.518;9.864;2022-11-10T16:17:44;12.18;;;4.95;;
20709;SDS011;10516;51.518;9.864;2022-11-10T16:20:13;14.27;;;4.97;;
20709;SDS011;10516;51.518;9.864;2022-11-10T16:22:39;14.35;;;5.47;;
20709;SDS011;10516;51.518;9.864;2022-11-10T16:25:04;7.13;;;3.97;;
20709;SDS011;10516;51.518;9.864;2022-11-10T16:27:30;9.40;;;3.90;;
20709;SDS011;10516;51.518;9.864;2022-11-10T16:29:56;8.50;;;3.97;;
20709;SDS011;10516;51.518;9.864;2022-11-10T16:32:21;16.98;;;4.25;;
20709;SDS011;10516;51.518;9.864;2022-11-10T16:34:46;14.70;;;4.22;;
20709;SDS011;10516;51.518;9.864;2022-11-10T16:37:12;10.70;;;4.40;;
20709;SDS011;10516;51.518;9.864;2022-11-10T16:39:38;12.98;;;4.15;;
20709;SDS011;10516;51.518;9.864;2022-11-10T16:42:04;14.15;;;3.85;;
20709;SDS011;10516;51.518;9.864;2022-11-10T16:44:29;11.07;;;3.58;;
20709;SDS011;10516;51.518;9.864;2022-11-10T16:46:55;10.52;;;3.35;;
20709;SDS011;10516;51.518;9.864;2022-11-10T16:51:56;8.48;;;3.58;;
20709;SDS011;10516;51.518;9.864;2022-11-10T16:54:21;14.63;;;3.85;;
20709;SDS011;10516;51.518;9.864;2022-11-10T16:56:47;15.80;;;3.67;;
20709;SDS011;10516;51.518;9.864;2022-11-10T16:59:12;14.25;;;3.47;;
20709;SDS011;10516;51.518;9.864;2022-11-10T17:01:38;12.75;;;3.75;;
20709;SDS011;10516;51.518;9.864;2022-11-10T17:04:06;10.10;;;3.30;;
20709;SDS011;10516;51.518;9.864;2022-11-10T17:06:34;11.90;;;4.43;;